createdAt,value
2023-01-19T00:01:44.432Z,96605.75
2023-01-19T00:04:12.354Z,96606.91
2023-01-19T00:06:40.709Z,96609.25
2023-01-19T00:09:08.524Z,96592.78
2023-01-19T00:11:37.028Z,96596.31
2023-01-19T00:14:05.509Z,96597.47
2023-01-19T00:16:33.882Z,96602.19
2023-01-19T00:19:01.826Z,96603.00
2023-01-19T00:21:30.092Z,96605.31
2023-01-19T00:23:57.961Z,96601.81
2023-01-19T00:26:26.591Z,96591.22
2023-01-19T00:28:54.343Z,96595.16
2023-01-19T00:31:23.510Z,96590.84
2023-01-19T00:33:53.038Z,96599.06
2023-01-19T00:36:22.569Z,96595.16
2023-01-19T00:38:50.975Z,96600.63
2023-01-19T00:41:19.698Z,96600.25
2023-01-19T00:43:47.452Z,96602.19
2023-01-19T00:46:15.970Z,96604.94
2023-01-19T00:48:44.039Z,96595.09
2023-01-19T00:51:12.346Z,96601.41
2023-01-19T00:53:40.170Z,96603.72
2023-01-19T00:56:08.646Z,96600.59
2023-01-19T00:58:36.545Z,96596.28
2023-01-19T01:01:06.333Z,96594.31
2023-01-19T01:03:34.599Z,96604.91
2023-01-19T01:06:03.936Z,96604.13
2023-01-19T01:08:32.299Z,96604.53
2023-01-19T01:11:00.225Z,96605.31
2023-01-19T01:13:28.941Z,96596.66
2023-01-19T01:15:57.491Z,96593.53
2023-01-19T01:18:26.557Z,96593.16
2023-01-19T01:21:01.989Z,96593.16
2023-01-19T01:23:30.377Z,96598.22
2023-01-19T01:25:58.316Z,96602.53
2023-01-19T01:28:27.409Z,96599.38
2023-01-19T01:30:56.788Z,96605.25
2023-01-19T01:33:40.718Z,96597.81
2023-01-19T01:36:12.046Z,96593.47
2023-01-19T01:38:41.807Z,96602.91
2023-01-19T01:41:10.225Z,96603.31
2023-01-19T01:43:44.769Z,96607.63
2023-01-19T01:46:15.818Z,96606.81
2023-01-19T01:48:50.395Z,96613.91
2023-01-19T01:51:38.169Z,96610.72
2023-01-19T01:54:09.561Z,96606.00
2023-01-19T01:56:44.389Z,96600.03
2023-01-19T01:59:26.244Z,96584.00
2023-01-19T02:02:16.017Z,96604.44
2023-01-19T02:04:58.956Z,96607.16
2023-01-19T02:07:57.085Z,96592.28
2023-01-19T02:10:44.267Z,96606.81
2023-01-19T02:13:22.730Z,96602.88
2023-01-19T02:15:56.504Z,96588.72
2023-01-19T02:18:28.773Z,96594.25
2023-01-19T02:21:00.643Z,96610.69
2023-01-19T02:23:38.321Z,96598.56
2023-01-19T02:26:09.981Z,96595.00
2023-01-19T02:28:45.349Z,96605.25
2023-01-19T02:31:15.441Z,96605.25
2023-01-19T02:33:43.797Z,96603.25
2023-01-19T02:36:15.551Z,96602.88
2023-01-19T02:38:47.392Z,96601.69
2023-01-19T02:41:20.647Z,96599.31
2023-01-19T02:43:50.250Z,96607.56
2023-01-19T02:46:18.731Z,96604.44
2023-01-19T02:48:47.082Z,96605.59
2023-01-19T02:51:21.635Z,96607.91
2023-01-19T02:53:58.530Z,96618.56
2023-01-19T02:56:50.905Z,96613.84
2023-01-19T02:59:30.907Z,96609.88
2023-01-19T03:02:29.844Z,96626.34
2023-01-19T03:05:31.808Z,96635.75
2023-01-19T03:08:34.835Z,96632.59
2023-01-19T03:11:05.967Z,96629.44
2023-01-19T03:13:46.263Z,96649.03
2023-01-19T03:16:22.916Z,96633.00
2023-01-19T03:18:59.050Z,96636.03
2023-01-19T03:21:29.284Z,96647.34
2023-01-19T03:24:03.373Z,96641.16
2023-01-19T03:26:36.892Z,96629.78
2023-01-19T03:29:07.671Z,96636.09
2023-01-19T03:31:37.885Z,96644.72
2023-01-19T03:34:11.072Z,96636.50
2023-01-19T03:36:46.524Z,96635.69
2023-01-19T03:39:21.945Z,96642.00
2023-01-19T03:41:54.797Z,96651.41
2023-01-19T03:44:26.426Z,96657.66
2023-01-19T03:46:57.231Z,96653.72
2023-01-19T03:49:26.214Z,96648.19
2023-01-19T03:51:57.358Z,96657.63
2023-01-19T03:54:26.103Z,96667.44
2023-01-19T03:56:54.392Z,96670.19
2023-01-19T03:59:22.739Z,96666.22
2023-01-19T04:01:50.684Z,96659.22
2023-01-19T04:04:19.067Z,96680.34
2023-01-19T04:06:47.030Z,96671.72
2023-01-19T04:09:15.464Z,96677.59
2023-01-19T04:11:43.442Z,96680.78
2023-01-19T04:14:11.734Z,96670.59
2023-01-19T04:16:39.628Z,96685.09
2023-01-19T04:19:07.794Z,96685.44
2023-01-19T04:21:36.264Z,96689.66
2023-01-19T04:24:04.897Z,96692.84
2023-01-19T04:26:32.709Z,96691.59
2023-01-19T04:29:01.088Z,96702.59
2023-01-19T04:31:29.236Z,96692.81
2023-01-19T04:33:57.875Z,96686.47
2023-01-19T04:36:25.759Z,96700.69
2023-01-19T04:38:54.536Z,96701.84
2023-01-19T04:41:22.358Z,96685.59
2023-01-19T04:43:52.160Z,96685.59
2023-01-19T04:46:20.273Z,96692.69
2023-01-19T04:48:48.517Z,96682.63
2023-01-19T04:51:16.530Z,96686.53
2023-01-19T04:53:44.844Z,96697.59
2023-01-19T04:56:12.786Z,96692.13
2023-01-19T04:58:43.779Z,96699.13
2023-01-19T05:01:11.747Z,96704.59
2023-01-19T05:03:41.321Z,96693.69
2023-01-19T05:06:09.308Z,96708.56
2023-01-19T05:08:37.804Z,96696.81
2023-01-19T05:11:06.079Z,96702.75
2023-01-19T05:13:35.737Z,96688.25
2023-01-19T05:16:04.074Z,96688.69
2023-01-19T05:18:36.334Z,96699.22
2023-01-19T05:21:05.017Z,96689.88
2023-01-19T05:23:33.919Z,96693.44
2023-01-19T05:26:03.534Z,96685.97
2023-01-19T05:28:33.642Z,96696.97
2023-01-19T05:31:01.867Z,96695.47
2023-01-19T05:33:30.654Z,96696.63
2023-01-19T05:35:58.844Z,96673.09
2023-01-19T05:38:35.314Z,96692.31
2023-01-19T05:41:04.224Z,96702.09
2023-01-19T05:43:32.411Z,96713.88
2023-01-19T05:46:00.675Z,96717.34
2023-01-19T05:48:28.857Z,96700.88
2023-01-19T05:51:00.491Z,96722.50
2023-01-19T05:53:29.209Z,96718.19
2023-01-19T05:56:05.877Z,96716.25
2023-01-19T05:58:35.735Z,96723.31
2023-01-19T06:01:05.930Z,96719.00
2023-01-19T06:03:35.904Z,96709.59
2023-01-19T06:06:04.416Z,96715.91
2023-01-19T06:08:33.183Z,96720.63
2023-01-19T06:11:01.135Z,96730.81
2023-01-19T06:13:29.372Z,96720.63
2023-01-19T06:16:00.404Z,96725.31
2023-01-19T06:18:29.619Z,96730.81
2023-01-19T06:21:00.094Z,96719.47
2023-01-19T06:23:31.479Z,96717.09
2023-01-19T06:25:59.581Z,96730.06
2023-01-19T06:28:28.491Z,96724.19
2023-01-19T06:30:57.490Z,96734.00
2023-01-19T06:33:27.856Z,96729.31
2023-01-19T06:35:56.948Z,96723.81
2023-01-19T06:38:25.529Z,96717.53
2023-01-19T06:40:58.763Z,96726.91
2023-01-19T06:43:27.635Z,96725.28
2023-01-19T06:45:56.519Z,96726.13
2023-01-19T06:48:25.199Z,96734.00
2023-01-19T06:50:53.059Z,96731.69
2023-01-19T06:53:22.697Z,96730.50
2023-01-19T06:55:50.911Z,96732.88
2023-01-19T06:58:19.835Z,96729.34
2023-01-19T07:00:47.686Z,96734.03
2023-01-19T07:03:20.874Z,96724.63
2023-01-19T07:05:54.464Z,96732.88
2023-01-19T07:08:23.751Z,96734.84
2023-01-19T07:11:26.361Z,96732.47
2023-01-19T07:13:41.505Z,96734.06
2023-01-19T07:16:12.246Z,96731.69
2023-01-19T07:18:41.584Z,96727.41
2023-01-19T07:21:09.848Z,96717.94
2023-01-19T07:23:38.908Z,96730.91
2023-01-19T07:26:06.881Z,96723.84
2023-01-19T07:28:35.429Z,96727.78
2023-01-19T07:31:03.968Z,96727.75
2023-01-19T07:33:32.264Z,96724.63
2023-01-19T07:36:00.435Z,96732.06
2023-01-19T07:38:28.729Z,96735.59
2023-01-19T07:41:07.718Z,96732.09
2023-01-19T07:43:36.204Z,96727.34
2023-01-19T07:46:06.557Z,96724.56
2023-01-19T07:48:35.448Z,96721.81
2023-01-19T07:51:18.327Z,96718.25
2023-01-19T07:53:46.849Z,96708.06
2023-01-19T07:56:14.963Z,96699.38
2023-01-19T07:58:43.384Z,96694.25
2023-01-19T08:01:13.399Z,96701.78
2023-01-19T08:03:42.744Z,96703.25
2023-01-19T08:06:24.108Z,96693.47
2023-01-19T08:08:53.207Z,96706.41
2023-01-19T08:11:21.097Z,96701.63
2023-01-19T08:13:49.545Z,96696.47
2023-01-19T08:16:17.539Z,96689.75
2023-01-19T08:18:46.443Z,96688.16
2023-01-19T08:21:15.362Z,96689.78
2023-01-19T08:23:43.953Z,96692.09
2023-01-19T08:26:27.628Z,96674.84
2023-01-19T08:28:58.140Z,96680.34
2023-01-19T08:31:26.939Z,96684.66
2023-01-19T08:33:55.383Z,96682.66
2023-01-19T08:36:25.439Z,96674.00
2023-01-19T08:38:53.830Z,96666.13
2023-01-19T08:41:22.603Z,96652.00
2023-01-19T08:43:51.137Z,96660.56
2023-01-19T08:46:21.566Z,96644.84
2023-01-19T08:48:50.972Z,96653.50
2023-01-19T08:51:19.795Z,96644.75
2023-01-19T08:53:48.061Z,96640.75
2023-01-19T08:56:16.337Z,96637.59
2023-01-19T08:58:51.200Z,96640.72
2023-01-19T09:01:24.515Z,96638.34
2023-01-19T09:03:53.738Z,96637.16
2023-01-19T09:06:21.704Z,96634.84
2023-01-19T09:08:50.250Z,96630.69
2023-01-19T09:11:19.009Z,96609.72
2023-01-19T09:13:47.229Z,96619.91
2023-01-19T09:16:16.220Z,96616.84
2023-01-19T09:18:46.236Z,96607.28
2023-01-19T09:21:15.337Z,96613.00
2023-01-19T09:23:43.769Z,96608.13
2023-01-19T09:26:12.119Z,96609.13
2023-01-19T09:28:40.331Z,96598.81
2023-01-19T09:31:09.459Z,96595.06
2023-01-19T09:33:37.997Z,96605.13
2023-01-19T09:36:06.449Z,96591.59
2023-01-19T09:38:34.926Z,96590.44
2023-01-19T09:41:04.585Z,96579.66
2023-01-19T09:43:43.315Z,96571.84
2023-01-19T09:46:14.566Z,96584.88
2023-01-19T09:48:53.314Z,96578.56
2023-01-19T09:51:28.789Z,96587.47
2023-01-19T09:54:21.128Z,96577.13
2023-01-19T09:56:52.419Z,96566.41
2023-01-19T09:59:28.681Z,96576.19
2023-01-19T10:02:20.894Z,96573.50
2023-01-19T10:05:04.584Z,96569.38
2023-01-19T10:07:55.680Z,96564.00
2023-01-19T10:10:29.075Z,96563.66
2023-01-19T10:13:26.118Z,96568.44
2023-01-19T10:16:31.869Z,96568.66
2023-01-19T10:19:23.855Z,96558.00
2023-01-19T10:21:56.130Z,96567.13
2023-01-19T10:24:38.946Z,96551.22
2023-01-19T10:27:18.617Z,96553.94
2023-01-19T10:29:47.053Z,96564.38
2023-01-19T10:32:22.492Z,96544.25
2023-01-19T10:34:51.115Z,96550.53
2023-01-19T10:37:25.246Z,96564.78
2023-01-19T10:39:56.249Z,96564.50
2023-01-19T10:42:29.590Z,96564.50
2023-01-19T10:44:58.946Z,96564.44
2023-01-19T10:47:39.978Z,96564.50
2023-01-19T10:50:23.606Z,96568.47
2023-01-19T10:52:54.842Z,96569.28
2023-01-19T10:55:32.185Z,96574.00
2023-01-19T10:58:00.803Z,96566.91
2023-01-19T11:00:38.192Z,96568.31
2023-01-19T11:03:29.496Z,96569.00
2023-01-19T11:06:19.406Z,96564.22
2023-01-19T11:08:51.647Z,96567.28
2023-01-19T11:11:21.568Z,96560.66
2023-01-19T11:14:11.510Z,96564.03
2023-01-19T11:16:40.380Z,96569.38
2023-01-19T11:19:20.286Z,96561.88
2023-01-19T11:21:48.338Z,96566.94
2023-01-19T11:24:17.176Z,96573.88
2023-01-19T11:26:48.528Z,96575.94
2023-01-19T11:29:23.833Z,96580.16
2023-01-19T11:31:53.685Z,96576.06
2023-01-19T11:34:40.108Z,96572.59
2023-01-19T11:37:31.919Z,96570.31
2023-01-19T11:40:04.470Z,96572.00
2023-01-19T11:42:34.688Z,96564.78
2023-01-19T11:45:23.526Z,96578.16
2023-01-19T11:47:52.924Z,96581.97
2023-01-19T11:50:32.269Z,96579.75
2023-01-19T11:53:07.813Z,96575.22
2023-01-19T11:56:01.104Z,96587.72
2023-01-19T11:58:30.658Z,96581.38
2023-01-19T12:01:14.748Z,96576.06
2023-01-19T12:04:06.128Z,96581.47
2023-01-19T12:06:48.067Z,96578.94
2023-01-19T12:09:24.649Z,96581.84
2023-01-19T12:11:56.131Z,96586.91
2023-01-19T12:14:32.297Z,96587.59
2023-01-19T12:17:04.695Z,96588.81
2023-01-19T12:19:56.515Z,96590.63
2023-01-19T12:22:28.889Z,96585.75
2023-01-19T12:25:06.381Z,96583.53
2023-01-19T12:27:34.604Z,96591.34
2023-01-19T12:30:06.429Z,96589.41
2023-01-19T12:32:37.275Z,96597.72
2023-01-19T12:35:05.826Z,96596.00
2023-01-19T12:37:41.958Z,96611.16
2023-01-19T12:40:37.825Z,96603.56
2023-01-19T12:43:06.460Z,96603.41
2023-01-19T12:45:36.596Z,96607.63
2023-01-19T12:48:05.724Z,96603.34
2023-01-19T12:50:38.125Z,96613.09
2023-01-19T12:53:19.383Z,96603.03
2023-01-19T12:56:00.317Z,96617.66
2023-01-19T12:58:29.207Z,96615.31
2023-01-19T13:01:21.406Z,96618.06
2023-01-19T13:04:09.746Z,96613.00
2023-01-19T13:06:49.941Z,96623.66
2023-01-19T13:09:33.406Z,96613.81
2023-01-19T13:12:19.614Z,96618.19
2023-01-19T13:14:48.481Z,96615.47
2023-01-19T13:17:32.178Z,96621.47
2023-01-19T13:20:25.074Z,96628.41
2023-01-19T13:23:09.773Z,96624.03
2023-01-19T13:25:43.945Z,96616.03
2023-01-19T13:28:16.639Z,96635.19
2023-01-19T13:30:58.480Z,96637.59
2023-01-19T13:33:30.489Z,96641.94
2023-01-19T13:35:59.465Z,96647.50
2023-01-19T13:38:29.016Z,96640.56
2023-01-19T13:41:02.121Z,96645.66
2023-01-19T13:43:38.097Z,96646.63
2023-01-19T13:46:07.017Z,96642.56
2023-01-19T13:48:34.980Z,96636.91
2023-01-19T13:51:17.741Z,96641.22
2023-01-19T13:53:59.135Z,96634.53
2023-01-19T13:56:29.959Z,96645.47
2023-01-19T13:59:12.129Z,96646.22
2023-01-19T14:01:44.166Z,96651.66
2023-01-19T14:04:29.037Z,96657.19
2023-01-19T14:07:01.313Z,96653.88
2023-01-19T14:09:30.743Z,96660.63
2023-01-19T14:12:14.399Z,96667.09
2023-01-19T14:14:49.890Z,96674.03
2023-01-19T14:17:27.528Z,96675.69
2023-01-19T14:19:57.586Z,96675.97
2023-01-19T14:22:44.693Z,96685.09
2023-01-19T14:25:28.282Z,96677.69
2023-01-19T14:28:29.275Z,96696.66
2023-01-19T14:31:17.465Z,96693.88
2023-01-19T14:33:51.412Z,96709.72
2023-01-19T14:36:34.437Z,96710.94
2023-01-19T14:39:04.237Z,96713.41
2023-01-19T14:41:53.277Z,96712.63
2023-01-19T14:44:34.288Z,96719.06
2023-01-19T14:47:03.618Z,96714.69
2023-01-19T14:49:38.720Z,96714.31
2023-01-19T14:52:23.682Z,96731.31
2023-01-19T14:54:54.873Z,96731.72
2023-01-19T14:57:22.993Z,96728.63
2023-01-19T14:59:51.276Z,96736.84
2023-01-19T15:02:19.797Z,96733.69
2023-01-19T15:04:48.497Z,96738.84
2023-01-19T15:07:20.301Z,96733.34
2023-01-19T15:09:48.874Z,96740.41
2023-01-19T15:12:18.842Z,96753.34
2023-01-19T15:14:47.251Z,96759.66
2023-01-19T15:17:25.910Z,96755.00
2023-01-19T15:19:56.599Z,96757.41
2023-01-19T15:22:30.418Z,96753.13
2023-01-19T15:25:01.887Z,96758.25
2023-01-19T15:27:30.847Z,96761.59
2023-01-19T15:30:00.012Z,96766.34
2023-01-19T15:32:28.104Z,96765.41
2023-01-19T15:34:57.717Z,96783.91
2023-01-19T15:37:25.747Z,96783.47
2023-01-19T15:39:53.989Z,96778.72
2023-01-19T15:42:21.927Z,96776.75
2023-01-19T15:44:50.949Z,96775.56
2023-01-19T15:47:18.884Z,96787.03
2023-01-19T15:49:47.116Z,96778.03
2023-01-19T15:52:17.027Z,96780.72
2023-01-19T15:54:45.418Z,96786.63
2023-01-19T15:57:13.253Z,96785.06
2023-01-19T15:59:41.469Z,96797.28
2023-01-19T16:02:10.127Z,96783.59
2023-01-19T16:04:38.674Z,96793.78
2023-01-19T16:07:06.516Z,96798.88
2023-01-19T16:09:34.867Z,96796.13
2023-01-19T16:12:02.717Z,96805.69
2023-01-19T16:14:31.067Z,96805.69
2023-01-19T16:17:00.381Z,96814.31
2023-01-19T16:19:29.757Z,96800.97
2023-01-19T16:21:57.856Z,96799.38
2023-01-19T16:24:26.667Z,96810.41
2023-01-19T16:26:54.832Z,96803.38
2023-01-19T16:29:23.093Z,96810.56
2023-01-19T16:31:52.095Z,96813.75
2023-01-19T16:34:20.316Z,96812.97
2023-01-19T16:36:49.289Z,96823.50
2023-01-19T16:39:17.959Z,96831.47
2023-01-19T16:41:46.297Z,96811.41
2023-01-19T16:44:16.227Z,96821.63
2023-01-19T16:46:46.249Z,96835.78
2023-01-19T16:49:17.882Z,96833.41
2023-01-19T16:51:46.309Z,96831.06
2023-01-19T16:54:16.857Z,96834.59
2023-01-19T16:56:44.857Z,96839.72
2023-01-19T16:59:15.329Z,96821.69
2023-01-19T17:01:45.525Z,96829.44
2023-01-19T17:04:15.099Z,96834.22
2023-01-19T17:06:43.419Z,96837.38
2023-01-19T17:09:11.661Z,96825.25
2023-01-19T17:11:43.012Z,96839.78
2023-01-19T17:14:20.552Z,96845.81
2023-01-19T17:16:49.646Z,96852.13
2023-01-19T17:19:19.778Z,96847.00
2023-01-19T17:21:50.697Z,96852.94
2023-01-19T17:24:19.610Z,96860.53
2023-01-19T17:26:49.031Z,96877.78
2023-01-19T17:29:17.898Z,96872.25
2023-01-19T17:31:47.038Z,96877.38
2023-01-19T17:34:15.429Z,96873.84
2023-01-19T17:36:43.573Z,96873.84
2023-01-19T17:39:15.123Z,96881.72
2023-01-19T17:41:43.354Z,96888.00
2023-01-19T17:44:11.637Z,96889.53
2023-01-19T17:46:40.082Z,96893.91
2023-01-19T17:49:09.138Z,96888.75
2023-01-19T17:51:37.432Z,96886.81
2023-01-19T17:54:05.985Z,96885.63
2023-01-19T17:56:37.881Z,96893.09
2023-01-19T17:59:08.275Z,96876.19
2023-01-19T18:01:40.262Z,96895.06
2023-01-19T18:04:09.696Z,96898.22
2023-01-19T18:06:38.752Z,96893.97
2023-01-19T18:09:07.777Z,96885.31
2023-01-19T18:11:36.089Z,96894.72
2023-01-19T18:14:05.637Z,96896.31
2023-01-19T18:16:33.623Z,96893.94
2023-01-19T18:19:01.975Z,96886.88
2023-01-19T18:21:30.707Z,96896.28
2023-01-19T18:24:02.524Z,96903.78
2023-01-19T18:26:31.832Z,96907.31
2023-01-19T18:29:00.999Z,96910.84
2023-01-19T18:31:29.818Z,96910.44
2023-01-19T18:33:58.061Z,96908.88
2023-01-19T18:36:26.121Z,96912.00
2023-01-19T18:38:54.528Z,96907.31
2023-01-19T18:41:22.586Z,96917.13
2023-01-19T18:43:52.228Z,96917.53
2023-01-19T18:46:21.520Z,96925.41
2023-01-19T18:48:49.916Z,96912.81
2023-01-19T18:51:19.453Z,96922.63
2023-01-19T18:53:48.057Z,96934.84
2023-01-19T18:56:16.641Z,96930.50
2023-01-19T18:58:45.113Z,96941.53
2023-01-19T19:01:36.841Z,96935.59
2023-01-19T19:04:05.391Z,96918.31
2023-01-19T19:06:33.514Z,96941.91
2023-01-19T19:09:01.754Z,96943.88
2023-01-19T19:11:29.652Z,96945.44
2023-01-19T19:14:00.909Z,96944.66
2023-01-19T19:16:30.262Z,96937.19
2023-01-19T19:18:59.764Z,96940.75
2023-01-19T19:21:28.066Z,96936.78
2023-01-19T19:23:58.002Z,96943.06
2023-01-19T19:26:28.392Z,96943.88
2023-01-19T19:28:57.331Z,96948.59
2023-01-19T19:31:27.851Z,96955.69
2023-01-19T19:33:57.591Z,96953.31
2023-01-19T19:36:27.296Z,96953.69
2023-01-19T19:38:56.102Z,96952.50
2023-01-19T19:41:29.064Z,96952.53
2023-01-19T19:43:58.312Z,96959.59
2023-01-19T19:46:27.342Z,96950.13
2023-01-19T19:48:55.945Z,96967.84
2023-01-19T19:51:29.796Z,96959.59
2023-01-19T19:54:00.982Z,96971.00
2023-01-19T19:56:31.169Z,96967.84
2023-01-19T19:58:59.899Z,96969.00
2023-01-19T20:01:32.888Z,96965.47
2023-01-19T20:04:11.089Z,96968.22
2023-01-19T20:06:42.736Z,96974.53
2023-01-19T20:09:13.131Z,96980.81
2023-01-19T20:11:43.221Z,96973.34
2023-01-19T20:14:14.061Z,96976.50
2023-01-19T20:16:42.759Z,96979.25
2023-01-19T20:19:11.386Z,96972.97
2023-01-19T20:21:43.966Z,96983.59
2023-01-19T20:24:31.243Z,96974.91
2023-01-19T20:26:59.274Z,96970.59
2023-01-19T20:29:27.697Z,96978.44
2023-01-19T20:31:56.694Z,96978.84
2023-01-19T20:34:30.446Z,96975.28
2023-01-19T20:37:00.933Z,96960.75
2023-01-19T20:39:33.532Z,96966.66
2023-01-19T20:42:02.385Z,96966.66
2023-01-19T20:44:31.338Z,96962.34
2023-01-19T20:47:02.306Z,96961.94
2023-01-19T20:49:31.125Z,96958.72
2023-01-19T20:51:59.578Z,96966.22
2023-01-19T20:54:30.598Z,96964.94
2023-01-19T20:57:00.359Z,96952.00
2023-01-19T20:59:29.068Z,96959.09
2023-01-19T21:01:57.383Z,96961.06
2023-01-19T21:04:26.442Z,96959.50
2023-01-19T21:06:54.676Z,96966.22
2023-01-19T21:09:24.201Z,96958.31
2023-01-19T21:11:52.758Z,96966.56
2023-01-19T21:14:21.206Z,96952.38
2023-01-19T21:16:49.433Z,96952.38
2023-01-19T21:19:19.688Z,96967.31
2023-01-19T21:21:47.820Z,96957.88
2023-01-19T21:24:17.253Z,96949.25
2023-01-19T21:26:46.558Z,96957.13
2023-01-19T21:29:15.024Z,96946.13
2023-01-19T21:31:43.655Z,96948.44
2023-01-19T21:34:14.531Z,96956.31
2023-01-19T21:36:45.006Z,96955.56
2023-01-19T21:39:14.858Z,96955.19
2023-01-19T21:41:45.434Z,96968.94
2023-01-19T21:44:15.257Z,96959.97
2023-01-19T21:46:43.739Z,96954.84
2023-01-19T21:49:19.231Z,96951.72
2023-01-19T21:51:48.504Z,96956.81
2023-01-19T21:54:19.609Z,96948.56
2023-01-19T21:56:49.935Z,96960.38
2023-01-19T21:59:20.346Z,96958.81
2023-01-19T22:01:48.893Z,96951.75
2023-01-19T22:04:17.307Z,96954.88
2023-01-19T22:06:45.604Z,96956.47
2023-01-19T22:09:15.083Z,96965.09
2023-01-19T22:11:43.426Z,96958.81
2023-01-19T22:14:11.811Z,96955.66
2023-01-19T22:16:40.536Z,96964.31
2023-01-19T22:19:14.733Z,96958.81
2023-01-19T22:21:44.351Z,96957.25
2023-01-19T22:24:13.280Z,96961.97
2023-01-19T22:26:42.470Z,96954.50
2023-01-19T22:29:12.893Z,96960.38
2023-01-19T22:31:41.254Z,96955.66
2023-01-19T22:34:11.203Z,96952.50
2023-01-19T22:36:40.226Z,96945.81
2023-01-19T22:39:10.820Z,96951.66
2023-01-19T22:41:48.378Z,96951.28
2023-01-19T22:44:21.378Z,96951.69
2023-01-19T22:46:52.597Z,96954.03
2023-01-19T22:49:21.896Z,96952.09
2023-01-19T22:51:50.006Z,96951.66
2023-01-19T22:54:18.193Z,96957.19
2023-01-19T22:56:46.374Z,96952.09
2023-01-19T22:59:14.583Z,96957.59
2023-01-19T23:01:44.336Z,96961.91
2023-01-19T23:04:15.264Z,96958.41
2023-01-19T23:06:43.741Z,96962.31
2023-01-19T23:09:13.924Z,96959.22
2023-01-19T23:11:51.629Z,96958.41
2023-01-19T23:14:23.070Z,96968.22
2023-01-19T23:16:51.643Z,96965.09
2023-01-19T23:19:20.077Z,96947.00
2023-01-19T23:21:52.851Z,96963.09
2023-01-19T23:24:21.322Z,96940.72
2023-01-19T23:26:50.373Z,96961.97
2023-01-19T23:29:19.968Z,96958.81
2023-01-19T23:31:49.502Z,96961.94
2023-01-19T23:34:17.852Z,96954.47
2023-01-19T23:36:46.137Z,96951.72
2023-01-19T23:39:20.227Z,96947.81
2023-01-19T23:41:49.631Z,96956.03
2023-01-19T23:44:18.574Z,96956.44
2023-01-19T23:46:46.708Z,96956.84
2023-01-19T23:49:15.041Z,96956.47
2023-01-19T23:51:43.262Z,96960.41
2023-01-19T23:54:12.500Z,96951.72
2023-01-19T23:56:40.852Z,96949.38
2023-01-19T23:59:11.527Z,96947.00
